sensor_id;sensor_type;location;lat;lon;timestamp;temperature;humidity
10306;DHT22;5198;52.382;9.020;2023-11-19T04:47:19;11.20;99.90
10306;DHT22;5198;52.382;9.020;2023-11-19T04:51:24;11.30;99.90
10306;DHT22;5198;52.382;9.020;2023-11-19T04:55:27;11.30;99.90
10306;DHT22;5198;52.382;9.020;2023-11-19T04:59:30;11.50;99.90
10306;DHT22;5198;52.382;9.020;2023-11-19T05:03:36;11.50;99.90
10306;DHT22;5198;52.382;9.020;2023-11-19T05:07:40;11.60;99.90
10306;DHT22;5198;52.382;9.020;2023-11-19T05:11:43;11.60;99.90
10306;DHT22;5198;52.382;9.020;2023-11-19T05:15:49;11.60;99.90
10306;DHT22;5198;52.382;9.020;2023-11-19T05:19:54;11.70;99.90
10306;DHT22;5198;52.382;9.020;2023-11-19T05:23:56;11.70;99.90
10306;DHT22;5198;52.382;9.020;2023-11-19T05:27:59;11.80;99.90
10306;DHT22;5198;52.382;9.020;2023-11-19T05:32:02;11.90;99.90
10306;DHT22;5198;52.382;9.020;2023-11-19T05:36:07;11.90;99.90
10306;DHT22;5198;52.382;9.020;2023-11-19T05:44:43;11.90;99.90
10306;DHT22;5198;52.382;9.020;2023-11-19T05:48:46;12.00;99.90
10306;DHT22;5198;52.382;9.020;2023-11-19T05:52:51;12.00;99.90
10306;DHT22;5198;52.382;9.020;2023-11-19T05:56:54;12.00;99.90
10306;DHT22;5198;52.382;9.020;2023-11-19T06:01:11;12.00;99.90
10306;DHT22;5198;52.382;9.020;2023-11-19T06:05:14;12.00;99.90
10306;DHT22;5198;52.382;9.020;2023-11-19T06:09:18;12.00;99.90
10306;DHT22;5198;52.382;9.020;2023-11-19T06:17:39;12.00;99.90
10306;DHT22;5198;52.382;9.020;2023-11-19T06:21:42;12.00;99.90
10306;DHT22;5198;52.382;9.020;2023-11-19T06:25:59;11.90;99.90
10306;DHT22;5198;52.382;9.020;2023-11-19T07:11:24;12.00;99.90
10306;DHT22;5198;52.382;9.020;2023-11-19T07:15:38;12.10;99.90
10306;DHT22;5198;52.382;9.020;2023-11-19T07:19:41;12.10;99.90
10306;DHT22;5198;52.382;9.020;2023-11-19T07:23:45;12.10;99.90
10306;DHT22;5198;52.382;9.020;2023-11-19T07:27:49;12.10;99.90
10306;DHT22;5198;52.382;9.020;2023-11-19T07:31:55;12.10;99.90
10306;DHT22;5198;52.382;9.020;2023-11-19T07:36:07;12.10;99.90
10306;DHT22;5198;52.382;9.020;2023-11-19T07:40:10;12.10;99.90
10306;DHT22;5198;52.382;9.020;2023-11-19T07:44:15;12.20;99.90
10306;DHT22;5198;52.382;9.020;2023-11-19T07:48:18;12.10;99.90
10306;DHT22;5198;52.382;9.020;2023-11-19T07:52:24;12.10;99.90
10306;DHT22;5198;52.382;9.020;2023-11-19T07:56:32;12.10;99.90
10306;DHT22;5198;52.382;9.020;2023-11-19T08:00:38;12.10;99.90
10306;DHT22;5198;52.382;9.020;2023-11-19T08:04:42;12.10;99.90
10306;DHT22;5198;52.382;9.020;2023-11-19T08:08:47;12.10;99.90
10306;DHT22;5198;52.382;9.020;2023-11-19T08:13:02;12.10;99.90
10306;DHT22;5198;52.382;9.020;2023-11-19T15:29:19;11.80;99.90
10306;DHT22;5198;52.382;9.020;2023-11-19T15:33:40;11.80;99.90
10306;DHT22;5198;52.382;9.020;2023-11-19T15:55:47;11.80;99.90
10306;DHT22;5198;52.382;9.020;2023-11-19T16:08:52;11.80;99.90
10306;DHT22;5198;52.382;9.020;2023-11-19T16:13:05;11.80;99.90
10306;DHT22;5198;52.382;9.020;2023-11-19T16:17:08;11.80;99.90
10306;DHT22;5198;52.382;9.020;2023-11-19T16:21:22;11.80;99.90
10306;DHT22;5198;52.382;9.020;2023-11-19T16:25:26;11.80;99.90
10306;DHT22;5198;52.382;9.020;2023-11-19T16:29:31;11.80;99.90
10306;DHT22;5198;52.382;9.020;2023-11-19T16:33:35;11.80;99.90
10306;DHT22;5198;52.382;9.020;2023-11-19T16:37:38;11.80;99.90
10306;DHT22;5198;52.382;9.020;2023-11-19T16:41:41;11.80;99.90
10306;DHT22;5198;52.382;9.020;2023-11-19T16:45:59;11.80;99.90
10306;DHT22;5198;52.382;9.020;2023-11-19T16:50:09;11.80;99.90
10306;DHT22;5198;52.382;9.020;2023-11-19T16:54:14;11.70;99.90
10306;DHT22;5198;52.382;9.020;2023-11-19T17:02:30;11.70;99.90
10306;DHT22;5198;52.382;9.020;2023-11-19T17:06:52;11.70;99.90
10306;DHT22;5198;52.382;9.020;2023-11-19T17:11:01;11.70;99.90
10306;DHT22;5198;52.382;9.020;2023-11-19T17:15:05;11.70;99.90
10306;DHT22;5198;52.382;9.020;2023-11-19T17:19:27;11.70;99.90
10306;DHT22;5198;52.382;9.020;2023-11-19T17:23:30;11.70;99.90
10306;DHT22;5198;52.382;9.020;2023-11-19T17:27:44;11.70;99.90
10306;DHT22;5198;52.382;9.020;2023-11-19T17:31:54;11.70;99.90
10306;DHT22;5198;52.382;9.020;2023-11-19T17:36:17;11.70;99.90
10306;DHT22;5198;52.382;9.020;2023-11-19T17:40:28;11.70;99.90
10306;DHT22;5198;52.382;9.020;2023-11-19T17:44:39;11.80;99.90
10306;DHT22;5198;52.382;9.020;2023-11-19T17:48:45;11.70;99.90
10306;DHT22;5198;52.382;9.020;2023-11-19T17:57:03;11.70;99.90
10306;DHT22;5198;52.382;9.020;2023-11-19T18:01:07;11.70;99.90
10306;DHT22;5198;52.382;9.020;2023-11-19T18:05:10;11.70;99.90
10306;DHT22;5198;52.382;9.020;2023-11-19T18:09:13;11.70;99.90
10306;DHT22;5198;52.382;9.020;2023-11-19T18:13:18;11.60;99.90
10306;DHT22;5198;52.382;9.020;2023-11-19T18:17:21;11.60;99.90
10306;DHT22;5198;52.382;9.020;2023-11-19T18:21:24;11.60;99.90
10306;DHT22;5198;52.382;9.020;2023-11-19T18:25:27;11.60;99.90
10306;DHT22;5198;52.382;9.020;2023-11-19T18:29:33;11.60;99.90
10306;DHT22;5198;52.382;9.020;2023-11-19T18:33:37;11.60;99.90
10306;DHT22;5198;52.382;9.020;2023-11-19T18:37:40;11.60;99.90
10306;DHT22;5198;52.382;9.020;2023-11-19T18:41:44;11.60;99.90
10306;DHT22;5198;52.382;9.020;2023-11-19T18:45:49;11.60;99.90
10306;DHT22;5198;52.382;9.020;2023-11-19T18:49:52;11.50;99.90
10306;DHT22;5198;52.382;9.020;2023-11-19T18:53:57;11.50;99.90
10306;DHT22;5198;52.382;9.020;2023-11-19T18:58:03;11.50;99.90
10306;DHT22;5198;52.382;9.020;2023-11-19T19:02:25;11.50;99.90
10306;DHT22;5198;52.382;9.020;2023-11-19T19:06:30;11.50;99.90
10306;DHT22;5198;52.382;9.020;2023-11-19T19:10:33;11.50;99.90
10306;DHT22;5198;52.382;9.020;2023-11-19T19:14:38;11.50;99.90
10306;DHT22;5198;52.382;9.020;2023-11-19T19:18:44;11.50;99.90
10306;DHT22;5198;52.382;9.020;2023-11-19T19:23:03;11.50;99.90
10306;DHT22;5198;52.382;9.020;2023-11-19T19:27:06;11.50;99.90
10306;DHT22;5198;52.382;9.020;2023-11-19T19:31:15;11.50;99.90
10306;DHT22;5198;52.382;9.020;2023-11-19T19:35:22;11.40;99.90
10306;DHT22;5198;52.382;9.020;2023-11-19T19:39:30;11.50;99.90
10306;DHT22;5198;52.382;9.020;2023-11-19T19:43:34;11.50;99.90
10306;DHT22;5198;52.382;9.020;2023-11-19T19:47:40;11.50;99.90
10306;DHT22;5198;52.382;9.020;2023-11-19T19:51:45;11.50;99.90
10306;DHT22;5198;52.382;9.020;2023-11-19T20:04:22;11.50;99.90
10306;DHT22;5198;52.382;9.020;2023-11-19T20:08:27;11.50;99.90
10306;DHT22;5198;52.382;9.020;2023-11-19T20:12:47;11.50;99.90
10306;DHT22;5198;52.382;9.020;2023-11-19T20:21:16;11.50;99.90
10306;DHT22;5198;52.382;9.020;2023-11-19T20:25:22;11.50;99.90
10306;DHT22;5198;52.382;9.020;2023-11-19T20:33:38;11.50;99.90
10306;DHT22;5198;52.382;9.020;2023-11-19T20:37:44;11.50;99.90
10306;DHT22;5198;52.382;9.020;2023-11-19T20:41:50;11.50;99.90
10306;DHT22;5198;52.382;9.020;2023-11-19T20:45:54;11.50;99.90
10306;DHT22;5198;52.382;9.020;2023-11-19T20:50:05;11.50;99.90
10306;DHT22;5198;52.382;9.020;2023-11-19T20:54:19;11.50;99.90
10306;DHT22;5198;52.382;9.020;2023-11-19T20:58:42;11.50;99.90
10306;DHT22;5198;52.382;9.020;2023-11-19T21:02:54;11.50;99.90
10306;DHT22;5198;52.382;9.020;2023-11-19T21:07:20;11.50;99.90
10306;DHT22;5198;52.382;9.020;2023-11-19T21:11:26;11.50;99.90
10306;DHT22;5198;52.382;9.020;2023-11-19T21:15:35;11.50;99.90
10306;DHT22;5198;52.382;9.020;2023-11-19T21:20:03;11.50;99.90
10306;DHT22;5198;52.382;9.020;2023-11-19T21:33:20;11.50;99.90
10306;DHT22;5198;52.382;9.020;2023-11-19T21:46:27;11.50;99.90
10306;DHT22;5198;52.382;9.020;2023-11-19T21:55:12;11.50;99.90
10306;DHT22;5198;52.382;9.020;2023-11-19T22:08:01;11.50;99.90
10306;DHT22;5198;52.382;9.020;2023-11-19T22:12:13;11.50;99.90
10306;DHT22;5198;52.382;9.020;2023-11-19T22:16:35;11.50;99.90
10306;DHT22;5198;52.382;9.020;2023-11-19T22:20:45;11.50;99.90
10306;DHT22;5198;52.382;9.020;2023-11-19T22:24:51;11.50;99.90
10306;DHT22;5198;52.382;9.020;2023-11-19T22:29:15;11.50;99.90
10306;DHT22;5198;52.382;9.020;2023-11-19T22:33:36;11.60;99.90
10306;DHT22;5198;52.382;9.020;2023-11-19T22:42:00;11.50;99.90
10306;DHT22;5198;52.382;9.020;2023-11-19T22:46:09;11.50;99.90
10306;DHT22;5198;52.382;9.020;2023-11-19T22:50:23;11.50;99.90
10306;DHT22;5198;52.382;9.020;2023-11-19T22:54:27;11.60;99.90
10306;DHT22;5198;52.382;9.020;2023-11-19T22:58:31;11.50;99.90
10306;DHT22;5198;52.382;9.020;2023-11-19T23:02:39;11.50;99.90
10306;DHT22;5198;52.382;9.020;2023-11-19T23:06:48;11.50;99.90
10306;DHT22;5198;52.382;9.020;2023-11-19T23:10:50;11.50;99.90
10306;DHT22;5198;52.382;9.020;2023-11-19T23:14:53;11.50;99.90
10306;DHT22;5198;52.382;9.020;2023-11-19T23:19:10;11.50;99.90
10306;DHT22;5198;52.382;9.020;2023-11-19T23:23:13;11.50;99.90
10306;DHT22;5198;52.382;9.020;2023-11-19T23:27:24;11.50;99.90
10306;DHT22;5198;52.382;9.020;2023-11-19T23:35:55;11.50;99.90
